sensor_id;sensor_type;location;lat;lon;timestamp;pressure;altitude;pressure_sealevel;temperature;humidity
48968;BME280;46511;53.148;8.204;2023-09-19T00:02:06;100408.31;;;18.02;100.00
48968;BME280;46511;53.148;8.204;2023-09-19T00:04:39;100410.56;;;17.96;100.00
48968;BME280;46511;53.148;8.204;2023-09-19T00:07:10;100421.00;;;18.19;100.00
48968;BME280;46511;53.148;8.204;2023-09-19T00:09:42;100413.09;;;18.08;100.00
48968;BME280;46511;53.148;8.204;2023-09-19T00:12:10;100420.31;;;18.07;100.00
48968;BME280;46511;53.148;8.204;2023-09-19T00:14:41;100430.91;;;18.18;100.00
48968;BME280;46511;53.148;8.204;2023-09-19T00:17:08;100436.28;;;18.09;100.00
48968;BME280;46511;53.148;8.204;2023-09-19T00:19:35;100434.88;;;18.24;100.00
48968;BME280;46511;53.148;8.204;2023-09-19T00:22:02;100434.34;;;18.11;100.00
48968;BME280;46511;53.148;8.204;2023-09-19T00:24:33;100432.22;;;18.05;100.00
48968;BME280;46511;53.148;8.204;2023-09-19T00:27:05;100432.34;;;18.13;100.00
48968;BME280;46511;53.148;8.204;2023-09-19T00:29:36;100436.59;;;18.06;100.00
48968;BME280;46511;53.148;8.204;2023-09-19T00:32:08;100421.47;;;17.76;100.00
48968;BME280;46511;53.148;8.204;2023-09-19T00:34:39;100438.84;;;17.81;100.00
48968;BME280;46511;53.148;8.204;2023-09-19T00:37:11;100425.16;;;17.84;100.00
48968;BME280;46511;53.148;8.204;2023-09-19T00:39:42;100432.09;;;17.77;100.00
48968;BME280;46511;53.148;8.204;2023-09-19T00:42:22;100431.22;;;17.86;100.00
48968;BME280;46511;53.148;8.204;2023-09-19T00:44:53;100442.53;;;17.70;100.00
48968;BME280;46511;53.148;8.204;2023-09-19T00:47:25;100451.19;;;17.74;100.00
48968;BME280;46511;53.148;8.204;2023-09-19T00:49:51;100446.81;;;17.73;100.00
48968;BME280;46511;53.148;8.204;2023-09-19T00:52:18;100452.00;;;17.65;100.00
48968;BME280;46511;53.148;8.204;2023-09-19T00:54:54;100439.72;;;17.72;100.00
48968;BME280;46511;53.148;8.204;2023-09-19T00:57:25;100447.72;;;17.53;100.00
48968;BME280;46511;53.148;8.204;2023-09-19T00:59:57;100456.09;;;17.69;100.00
48968;BME280;46511;53.148;8.204;2023-09-19T01:02:29;100462.44;;;17.58;100.00
48968;BME280;46511;53.148;8.204;2023-09-19T01:05:01;100463.44;;;17.67;100.00
48968;BME280;46511;53.148;8.204;2023-09-19T01:07:34;100475.31;;;17.64;100.00
48968;BME280;46511;53.148;8.204;2023-09-19T01:10:02;100474.22;;;17.77;100.00
48968;BME280;46511;53.148;8.204;2023-09-19T01:12:45;100470.84;;;17.84;100.00
48968;BME280;46511;53.148;8.204;2023-09-19T01:18:21;100477.47;;;17.80;100.00
48968;BME280;46511;53.148;8.204;2023-09-19T01:21:26;100483.53;;;17.63;100.00
48968;BME280;46511;53.148;8.204;2023-09-19T01:27:47;100485.81;;;17.87;100.00
48968;BME280;46511;53.148;8.204;2023-09-19T01:30:39;100495.34;;;17.51;100.00
48968;BME280;46511;53.148;8.204;2023-09-19T01:33:14;100502.41;;;17.52;100.00
48968;BME280;46511;53.148;8.204;2023-09-19T01:35:45;100504.03;;;17.64;100.00
48968;BME280;46511;53.148;8.204;2023-09-19T01:38:16;100506.69;;;17.54;100.00
48968;BME280;46511;53.148;8.204;2023-09-19T01:40:51;100495.94;;;17.45;100.00
48968;BME280;46511;53.148;8.204;2023-09-19T01:43:36;100504.28;;;17.11;100.00
48968;BME280;46511;53.148;8.204;2023-09-19T01:46:20;100501.59;;;17.11;100.00
48968;BME280;46511;53.148;8.204;2023-09-19T01:52:04;100514.28;;;17.39;100.00
48968;BME280;46511;53.148;8.204;2023-09-19T01:54:41;100510.22;;;17.14;100.00
48968;BME280;46511;53.148;8.204;2023-09-19T01:57:26;100510.81;;;17.18;100.00
48968;BME280;46511;53.148;8.204;2023-09-19T02:00:10;100515.41;;;16.97;100.00
48968;BME280;46511;53.148;8.204;2023-09-19T02:02:45;100521.66;;;17.07;100.00
48968;BME280;46511;53.148;8.204;2023-09-19T02:05:13;100508.50;;;17.04;100.00
48968;BME280;46511;53.148;8.204;2023-09-19T02:07:54;100521.91;;;16.73;100.00
48968;BME280;46511;53.148;8.204;2023-09-19T02:10:21;100501.72;;;16.58;100.00
48968;BME280;46511;53.148;8.204;2023-09-19T02:12:53;100516.13;;;16.57;100.00
48968;BME280;46511;53.148;8.204;2023-09-19T02:15:25;100511.22;;;16.62;100.00
48968;BME280;46511;53.148;8.204;2023-09-19T02:17:56;100511.81;;;16.45;100.00
48968;BME280;46511;53.148;8.204;2023-09-19T02:20:27;100524.78;;;16.40;100.00
48968;BME280;46511;53.148;8.204;2023-09-19T02:22:58;100521.75;;;16.54;100.00
48968;BME280;46511;53.148;8.204;2023-09-19T02:25:25;100522.56;;;16.45;100.00
48968;BME280;46511;53.148;8.204;2023-09-19T02:27:57;100533.66;;;16.19;100.00
48968;BME280;46511;53.148;8.204;2023-09-19T02:30:33;100538.75;;;16.22;100.00
48968;BME280;46511;53.148;8.204;2023-09-19T02:33:05;100542.03;;;16.26;100.00
48968;BME280;46511;53.148;8.204;2023-09-19T02:35:31;100540.25;;;16.15;100.00
48968;BME280;46511;53.148;8.204;2023-09-19T02:38:06;100535.88;;;16.14;100.00
48968;BME280;46511;53.148;8.204;2023-09-19T02:40:42;100543.69;;;16.06;100.00
48968;BME280;46511;53.148;8.204;2023-09-19T02:43:14;100552.03;;;15.92;100.00
48968;BME280;46511;53.148;8.204;2023-09-19T02:45:45;100547.63;;;15.91;100.00
48968;BME280;46511;53.148;8.204;2023-09-19T02:48:25;100549.72;;;15.87;100.00
48968;BME280;46511;53.148;8.204;2023-09-19T02:50:57;100541.47;;;15.79;100.00
48968;BME280;46511;53.148;8.204;2023-09-19T02:53:29;100544.28;;;15.78;100.00
48968;BME280;46511;53.148;8.204;2023-09-19T02:56:01;100542.34;;;15.57;100.00
48968;BME280;46511;53.148;8.204;2023-09-19T02:58:35;100550.75;;;15.75;100.00
48968;BME280;46511;53.148;8.204;2023-09-19T03:01:10;100556.78;;;15.88;100.00
48968;BME280;46511;53.148;8.204;2023-09-19T03:03:44;100560.38;;;15.55;100.00
48968;BME280;46511;53.148;8.204;2023-09-19T03:06:11;100546.56;;;15.82;100.00
48968;BME280;46511;53.148;8.204;2023-09-19T03:08:39;100552.56;;;15.75;100.00
48968;BME280;46511;53.148;8.204;2023-09-19T03:11:10;100548.19;;;15.74;100.00
48968;BME280;46511;53.148;8.204;2023-09-19T03:13:43;100555.00;;;15.78;100.00
48968;BME280;46511;53.148;8.204;2023-09-19T03:16:16;100561.03;;;15.91;100.00
48968;BME280;46511;53.148;8.204;2023-09-19T03:18:48;100566.19;;;15.71;100.00
48968;BME280;46511;53.148;8.204;2023-09-19T03:21:19;100568.66;;;15.75;100.00
48968;BME280;46511;53.148;8.204;2023-09-19T03:23:52;100572.31;;;15.62;100.00
48968;BME280;46511;53.148;8.204;2023-09-19T03:26:24;100565.13;;;15.63;100.00
48968;BME280;46511;53.148;8.204;2023-09-19T03:28:57;100565.09;;;15.52;100.00
48968;BME280;46511;53.148;8.204;2023-09-19T03:31:28;100578.88;;;15.69;100.00
48968;BME280;46511;53.148;8.204;2023-09-19T03:33:59;100566.31;;;15.59;100.00
48968;BME280;46511;53.148;8.204;2023-09-19T03:36:31;100573.50;;;15.58;100.00
48968;BME280;46511;53.148;8.204;2023-09-19T03:39:02;100579.00;;;15.57;100.00
48968;BME280;46511;53.148;8.204;2023-09-19T03:41:36;100579.84;;;15.57;100.00
48968;BME280;46511;53.148;8.204;2023-09-19T03:44:07;100574.88;;;15.64;100.00
48968;BME280;46511;53.148;8.204;2023-09-19T03:46:34;100573.97;;;15.86;100.00
48968;BME280;46511;53.148;8.204;2023-09-19T03:49:07;100569.75;;;15.61;100.00
48968;BME280;46511;53.148;8.204;2023-09-19T03:51:39;100575.59;;;15.55;100.00
48968;BME280;46511;53.148;8.204;2023-09-19T03:54:12;100594.78;;;15.60;100.00
48968;BME280;46511;53.148;8.204;2023-09-19T03:56:43;100581.09;;;15.64;100.00
48968;BME280;46511;53.148;8.204;2023-09-19T03:59:10;100582.53;;;15.46;100.00
48968;BME280;46511;53.148;8.204;2023-09-19T04:01:36;100587.38;;;15.52;100.00
48968;BME280;46511;53.148;8.204;2023-09-19T04:04:08;100571.69;;;15.59;100.00
48968;BME280;46511;53.148;8.204;2023-09-19T04:06:39;100586.19;;;15.45;100.00
48968;BME280;46511;53.148;8.204;2023-09-19T04:09:10;100579.84;;;15.57;100.00
48968;BME280;46511;53.148;8.204;2023-09-19T04:11:42;100578.63;;;15.50;100.00
48968;BME280;46511;53.148;8.204;2023-09-19T04:14:13;100579.38;;;15.63;100.00
48968;BME280;46511;53.148;8.204;2023-09-19T04:16:45;100584.47;;;15.55;100.00
48968;BME280;46511;53.148;8.204;2023-09-19T04:19:16;100590.56;;;15.46;100.00
48968;BME280;46511;53.148;8.204;2023-09-19T04:21:48;100585.31;;;15.56;100.00
48968;BME280;46511;53.148;8.204;2023-09-19T04:24:19;100566.72;;;15.54;100.00
48968;BME280;46511;53.148;8.204;2023-09-19T04:26:45;100565.09;;;15.52;100.00
48968;BME280;46511;53.148;8.204;2023-09-19T04:29:17;100566.22;;;15.38;100.00
48968;BME280;46511;53.148;8.204;2023-09-19T04:31:50;100580.94;;;15.43;100.00
48968;BME280;46511;53.148;8.204;2023-09-19T04:34:23;100585.44;;;15.54;100.00
48968;BME280;46511;53.148;8.204;2023-09-19T04:36:55;100587.88;;;15.24;100.00
48968;BME280;46511;53.148;8.204;2023-09-19T04:39:29;100587.38;;;15.52;100.00
48968;BME280;46511;53.148;8.204;2023-09-19T04:42:00;100593.72;;;15.29;100.00
48968;BME280;46511;53.148;8.204;2023-09-19T04:44:32;100592.03;;;15.39;100.00
48968;BME280;46511;53.148;8.204;2023-09-19T04:47:03;100604.69;;;15.26;100.00
48968;BME280;46511;53.148;8.204;2023-09-19T04:49:35;100604.56;;;15.27;100.00
48968;BME280;46511;53.148;8.204;2023-09-19T04:52:07;100618.53;;;15.31;100.00
48968;BME280;46511;53.148;8.204;2023-09-19T04:54:38;100616.00;;;15.40;100.00
48968;BME280;46511;53.148;8.204;2023-09-19T04:57:12;100610.25;;;15.34;100.00
48968;BME280;46511;53.148;8.204;2023-09-19T04:59:43;100621.69;;;15.25;100.00
48968;BME280;46511;53.148;8.204;2023-09-19T05:02:10;100638.38;;;15.28;100.00
48968;BME280;46511;53.148;8.204;2023-09-19T05:04:38;100636.28;;;15.21;100.00
48968;BME280;46511;53.148;8.204;2023-09-19T05:07:09;100637.78;;;15.47;100.00
48968;BME280;46511;53.148;8.204;2023-09-19T05:09:41;100635.72;;;15.62;100.00
48968;BME280;46511;53.148;8.204;2023-09-19T05:12:09;100621.19;;;15.53;100.00
48968;BME280;46511;53.148;8.204;2023-09-19T05:14:38;100620.75;;;15.70;100.00
48968;BME280;46511;53.148;8.204;2023-09-19T05:17:11;100616.09;;;15.50;100.00
48968;BME280;46511;53.148;8.204;2023-09-19T05:19:46;100616.00;;;15.63;100.00
48968;BME280;46511;53.148;8.204;2023-09-19T05:22:12;100627.06;;;15.81;100.00
48968;BME280;46511;53.148;8.204;2023-09-19T05:24:40;100640.19;;;15.73;100.00
48968;BME280;46511;53.148;8.204;2023-09-19T05:27:11;100630.72;;;15.57;100.00
48968;BME280;46511;53.148;8.204;2023-09-19T05:29:38;100621.97;;;15.66;100.00
48968;BME280;46511;53.148;8.204;2023-09-19T05:32:06;100610.63;;;15.85;100.00
48968;BME280;46511;53.148;8.204;2023-09-19T05:34:33;100597.69;;;15.90;100.00
48968;BME280;46511;53.148;8.204;2023-09-19T05:37:02;100612.34;;;16.18;100.00
48968;BME280;46511;53.148;8.204;2023-09-19T05:39:29;100629.19;;;16.09;100.00
48968;BME280;46511;53.148;8.204;2023-09-19T05:41:56;100632.41;;;16.56;100.00
48968;BME280;46511;53.148;8.204;2023-09-19T05:44:26;100632.88;;;16.40;100.00
48968;BME280;46511;53.148;8.204;2023-09-19T05:46:53;100632.31;;;16.25;100.00
48968;BME280;46511;53.148;8.204;2023-09-19T05:49:23;100646.19;;;16.31;100.00
48968;BME280;46511;53.148;8.204;2023-09-19T05:51:51;100636.28;;;16.63;100.00
48968;BME280;46511;53.148;8.204;2023-09-19T05:54:24;100636.53;;;17.13;100.00
48968;BME280;46511;53.148;8.204;2023-09-19T05:56:51;100647.44;;;16.47;100.00
48968;BME280;46511;53.148;8.204;2023-09-19T05:59:19;100648.34;;;16.37;100.00
48968;BME280;46511;53.148;8.204;2023-09-19T06:01:46;100657.38;;;16.68;100.00
48968;BME280;46511;53.148;8.204;2023-09-19T06:04:18;100645.88;;;16.45;100.00
48968;BME280;46511;53.148;8.204;2023-09-19T06:06:50;100645.22;;;16.32;100.00
48968;BME280;46511;53.148;8.204;2023-09-19T06:09:22;100649.16;;;16.48;100.00
48968;BME280;46511;53.148;8.204;2023-09-19T06:11:49;100637.53;;;16.27;100.00
48968;BME280;46511;53.148;8.204;2023-09-19T06:14:16;100643.69;;;16.50;100.00
48968;BME280;46511;53.148;8.204;2023-09-19T06:16:44;100652.09;;;16.45;100.00
48968;BME280;46511;53.148;8.204;2023-09-19T06:19:11;100658.53;;;16.54;100.00
48968;BME280;46511;53.148;8.204;2023-09-19T06:21:41;100660.41;;;16.42;100.00
48968;BME280;46511;53.148;8.204;2023-09-19T06:24:22;100667.41;;;16.22;100.00
48968;BME280;46511;53.148;8.204;2023-09-19T06:26:59;100676.91;;;16.26;100.00
48968;BME280;46511;53.148;8.204;2023-09-19T06:29:32;100660.81;;;16.26;100.00
48968;BME280;46511;53.148;8.204;2023-09-19T06:32:08;100667.47;;;15.78;100.00
48968;BME280;46511;53.148;8.204;2023-09-19T06:34:40;100665.84;;;16.09;100.00
48968;BME280;46511;53.148;8.204;2023-09-19T06:37:14;100668.66;;;16.07;100.00
48968;BME280;46511;53.148;8.204;2023-09-19T06:39:46;100673.44;;;15.92;100.00
48968;BME280;46511;53.148;8.204;2023-09-19T06:42:20;100682.94;;;15.96;100.00
48968;BME280;46511;53.148;8.204;2023-09-19T06:44:53;100684.03;;;15.94;100.00
48968;BME280;46511;53.148;8.204;2023-09-19T06:47:25;100703.75;;;15.70;100.00
48968;BME280;46511;53.148;8.204;2023-09-19T06:49:56;100718.63;;;15.75;100.00
48968;BME280;46511;53.148;8.204;2023-09-19T06:52:28;100702.91;;;15.92;100.00
48968;BME280;46511;53.148;8.204;2023-09-19T06:54:56;100696.94;;;16.11;100.00
48968;BME280;46511;53.148;8.204;2023-09-19T06:57:23;100691.00;;;16.40;100.00
48968;BME280;46511;53.148;8.204;2023-09-19T06:59:50;100690.66;;;16.65;100.00
48968;BME280;46511;53.148;8.204;2023-09-19T07:02:18;100697.38;;;17.75;100.00
48968;BME280;46511;53.148;8.204;2023-09-19T07:04:53;100688.09;;;20.99;100.00
48968;BME280;46511;53.148;8.204;2023-09-19T07:07:26;100691.63;;;19.17;100.00
48968;BME280;46511;53.148;8.204;2023-09-19T07:09:54;100695.00;;;18.41;100.00
48968;BME280;46511;53.148;8.204;2023-09-19T07:12:21;100700.56;;;18.09;100.00
48968;BME280;46511;53.148;8.204;2023-09-19T07:14:48;100708.91;;;17.96;100.00
48968;BME280;46511;53.148;8.204;2023-09-19T07:17:15;100704.66;;;18.92;100.00
48968;BME280;46511;53.148;8.204;2023-09-19T07:19:45;100696.13;;;19.26;100.00
48968;BME280;46511;53.148;8.204;2023-09-19T07:22:11;100696.47;;;19.97;100.00
48968;BME280;46511;53.148;8.204;2023-09-19T07:24:38;100690.47;;;20.76;100.00
48968;BME280;46511;53.148;8.204;2023-09-19T07:27:05;100692.06;;;22.24;100.00
48968;BME280;46511;53.148;8.204;2023-09-19T07:29:31;100687.28;;;23.26;100.00
48968;BME280;46511;53.148;8.204;2023-09-19T07:31:58;100685.25;;;21.70;100.00
48968;BME280;46511;53.148;8.204;2023-09-19T07:34:30;100680.19;;;21.23;100.00
48968;BME280;46511;53.148;8.204;2023-09-19T07:37:01;100682.97;;;20.52;100.00
48968;BME280;46511;53.148;8.204;2023-09-19T07:39:33;100694.88;;;21.03;100.00
48968;BME280;46511;53.148;8.204;2023-09-19T07:42:05;100679.47;;;21.13;100.00
48968;BME280;46511;53.148;8.204;2023-09-19T07:44:38;100688.00;;;21.08;100.00
48968;BME280;46511;53.148;8.204;2023-09-19T07:47:09;100683.75;;;22.10;100.00
48968;BME280;46511;53.148;8.204;2023-09-19T07:49:40;100681.75;;;23.75;98.29
48968;BME280;46511;53.148;8.204;2023-09-19T07:52:13;100687.13;;;23.91;98.01
48968;BME280;46511;53.148;8.204;2023-09-19T07:54:44;100696.28;;;22.94;100.00
48968;BME280;46511;53.148;8.204;2023-09-19T07:57:18;100685.56;;;23.41;100.00
48968;BME280;46511;53.148;8.204;2023-09-19T07:59:50;100693.34;;;24.47;93.61
48968;BME280;46511;53.148;8.204;2023-09-19T08:02:22;100690.63;;;24.08;92.59
48968;BME280;46511;53.148;8.204;2023-09-19T08:04:53;100668.28;;;22.61;97.53
48968;BME280;46511;53.148;8.204;2023-09-19T08:07:25;100704.78;;;22.32;100.00
48968;BME280;46511;53.148;8.204;2023-09-19T08:09:56;100691.16;;;22.08;100.00
48968;BME280;46511;53.148;8.204;2023-09-19T08:12:29;100683.00;;;22.00;100.00
48968;BME280;46511;53.148;8.204;2023-09-19T08:15:03;100682.16;;;22.74;99.28
48968;BME280;46511;53.148;8.204;2023-09-19T08:17:36;100680.66;;;24.00;96.27
48968;BME280;46511;53.148;8.204;2023-09-19T08:20:08;100684.97;;;22.23;100.00
48968;BME280;46511;53.148;8.204;2023-09-19T08:22:50;100699.53;;;21.96;100.00
48968;BME280;46511;53.148;8.204;2023-09-19T08:25:25;100686.25;;;23.19;97.35
48968;BME280;46511;53.148;8.204;2023-09-19T08:27:57;100689.94;;;22.61;100.00
48968;BME280;46511;53.148;8.204;2023-09-19T08:30:31;100682.91;;;23.88;94.84
48968;BME280;46511;53.148;8.204;2023-09-19T08:33:02;100691.28;;;23.54;94.41
48968;BME280;46511;53.148;8.204;2023-09-19T08:35:30;100701.28;;;24.71;81.69
48968;BME280;46511;53.148;8.204;2023-09-19T08:38:02;100692.19;;;23.94;88.18
48968;BME280;46511;53.148;8.204;2023-09-19T08:40:38;100690.34;;;23.15;92.42
48968;BME280;46511;53.148;8.204;2023-09-19T08:43:14;100715.69;;;22.73;94.59
48968;BME280;46511;53.148;8.204;2023-09-19T08:45:47;100696.97;;;23.04;95.91
48968;BME280;46511;53.148;8.204;2023-09-19T08:48:23;100683.72;;;23.01;97.03
48968;BME280;46511;53.148;8.204;2023-09-19T08:56:40;100696.72;;;23.54;92.17
48968;BME280;46511;53.148;8.204;2023-09-19T08:59:14;100702.91;;;21.56;100.00
48968;BME280;46511;53.148;8.204;2023-09-19T09:01:46;100699.28;;;21.48;100.00
48968;BME280;46511;53.148;8.204;2023-09-19T09:04:19;100697.09;;;23.02;99.35
48968;BME280;46511;53.148;8.204;2023-09-19T09:06:46;100721.47;;;23.43;94.32
48968;BME280;46511;53.148;8.204;2023-09-19T09:09:20;100695.25;;;22.87;98.13
48968;BME280;46511;53.148;8.204;2023-09-19T09:11:52;100707.63;;;22.89;97.13
48968;BME280;46511;53.148;8.204;2023-09-19T09:14:24;100702.69;;;21.06;100.00
48968;BME280;46511;53.148;8.204;2023-09-19T09:16:50;100699.25;;;20.60;100.00
48968;BME280;46511;53.148;8.204;2023-09-19T09:19:24;100719.34;;;19.93;100.00
48968;BME280;46511;53.148;8.204;2023-09-19T09:22:05;100712.34;;;20.27;100.00
48968;BME280;46511;53.148;8.204;2023-09-19T09:24:38;100712.69;;;20.15;100.00
48968;BME280;46511;53.148;8.204;2023-09-19T09:27:20;100720.84;;;20.33;100.00
48968;BME280;46511;53.148;8.204;2023-09-19T09:29:55;100722.34;;;19.90;100.00
48968;BME280;46511;53.148;8.204;2023-09-19T09:32:27;100726.81;;;19.99;100.00
48968;BME280;46511;53.148;8.204;2023-09-19T09:35:07;100718.38;;;20.67;100.00
48968;BME280;46511;53.148;8.204;2023-09-19T09:37:42;100730.53;;;21.24;100.00
48968;BME280;46511;53.148;8.204;2023-09-19T09:40:10;100713.66;;;20.69;100.00
48968;BME280;46511;53.148;8.204;2023-09-19T09:42:47;100723.53;;;20.33;100.00
48968;BME280;46511;53.148;8.204;2023-09-19T09:45:25;100714.34;;;20.25;100.00
48968;BME280;46511;53.148;8.204;2023-09-19T09:48:03;100711.31;;;19.83;100.00
48968;BME280;46511;53.148;8.204;2023-09-19T09:50:46;100710.75;;;20.07;100.00
48968;BME280;46511;53.148;8.204;2023-09-19T09:53:20;100716.97;;;19.90;100.00
48968;BME280;46511;53.148;8.204;2023-09-19T09:55:59;100723.97;;;20.10;100.00
48968;BME280;46511;53.148;8.204;2023-09-19T09:58:36;100732.94;;;19.64;100.00
48968;BME280;46511;53.148;8.204;2023-09-19T10:01:26;100728.44;;;20.19;100.00
48968;BME280;46511;53.148;8.204;2023-09-19T10:04:02;100730.28;;;20.46;100.00
48968;BME280;46511;53.148;8.204;2023-09-19T10:06:39;100728.63;;;20.81;100.00
48968;BME280;46511;53.148;8.204;2023-09-19T10:09:18;100735.91;;;22.28;100.00
48968;BME280;46511;53.148;8.204;2023-09-19T10:12:05;100723.88;;;23.05;100.00
48968;BME280;46511;53.148;8.204;2023-09-19T10:14:39;100730.22;;;24.25;87.05
48968;BME280;46511;53.148;8.204;2023-09-19T10:17:14;100735.03;;;23.19;91.23
48968;BME280;46511;53.148;8.204;2023-09-19T10:19:48;100709.00;;;24.29;89.04
48968;BME280;46511;53.148;8.204;2023-09-19T10:22:28;100708.06;;;22.60;96.25
48968;BME280;46511;53.148;8.204;2023-09-19T10:25:04;100729.63;;;24.77;86.17
48968;BME280;46511;53.148;8.204;2023-09-19T10:27:38;100729.28;;;23.38;86.09
48968;BME280;46511;53.148;8.204;2023-09-19T10:30:14;100726.03;;;24.14;78.76
48968;BME280;46511;53.148;8.204;2023-09-19T10:32:47;100747.56;;;22.87;88.01
48968;BME280;46511;53.148;8.204;2023-09-19T10:35:29;100711.28;;;22.72;92.65
48968;BME280;46511;53.148;8.204;2023-09-19T10:38:03;100717.00;;;22.36;93.69
48968;BME280;46511;53.148;8.204;2023-09-19T10:40:36;100713.75;;;21.38;98.95
48968;BME280;46511;53.148;8.204;2023-09-19T10:43:13;100712.00;;;22.90;93.40
48968;BME280;46511;53.148;8.204;2023-09-19T10:45:50;100712.34;;;23.12;86.68
48968;BME280;46511;53.148;8.204;2023-09-19T10:48:23;100727.38;;;24.81;71.42
48968;BME280;46511;53.148;8.204;2023-09-19T10:51:05;100715.09;;;24.93;75.98
48968;BME280;46511;53.148;8.204;2023-09-19T10:54:26;100702.56;;;26.90;61.87
48968;BME280;46511;53.148;8.204;2023-09-19T10:56:46;100720.34;;;25.84;65.53
48968;BME280;46511;53.148;8.204;2023-09-19T10:59:22;100721.19;;;26.00;64.23
48968;BME280;46511;53.148;8.204;2023-09-19T11:01:55;100712.06;;;26.22;59.42
48968;BME280;46511;53.148;8.204;2023-09-19T11:07:04;100703.16;;;23.45;77.85
48968;BME280;46511;53.148;8.204;2023-09-19T11:09:43;100709.44;;;24.09;76.07
48968;BME280;46511;53.148;8.204;2023-09-19T11:15:07;100704.63;;;26.45;57.79
48968;BME280;46511;53.148;8.204;2023-09-19T11:17:39;100702.03;;;26.59;58.29
48968;BME280;46511;53.148;8.204;2023-09-19T11:30:56;100695.72;;;26.22;61.28
48968;BME280;46511;53.148;8.204;2023-09-19T11:33:30;100698.19;;;24.83;62.57
48968;BME280;46511;53.148;8.204;2023-09-19T11:36:08;100711.56;;;24.61;67.34
48968;BME280;46511;53.148;8.204;2023-09-19T11:49:29;100680.66;;;24.62;74.06
48968;BME280;46511;53.148;8.204;2023-09-19T11:51:58;100683.38;;;25.75;66.58
48968;BME280;46511;53.148;8.204;2023-09-19T11:54:36;100697.00;;;25.90;59.64
48968;BME280;46511;53.148;8.204;2023-09-19T11:57:11;100685.56;;;25.80;58.78
48968;BME280;46511;53.148;8.204;2023-09-19T11:59:43;100680.50;;;25.01;62.79
48968;BME280;46511;53.148;8.204;2023-09-19T12:02:17;100675.16;;;25.16;63.47
48968;BME280;46511;53.148;8.204;2023-09-19T12:05:10;100679.59;;;26.78;55.18
48968;BME280;46511;53.148;8.204;2023-09-19T12:07:43;100687.34;;;25.87;58.30
48968;BME280;46511;53.148;8.204;2023-09-19T12:10:19;100675.22;;;26.62;56.25
48968;BME280;46511;53.148;8.204;2023-09-19T12:12:48;100680.09;;;25.50;61.54
48968;BME280;46511;53.148;8.204;2023-09-19T12:15:23;100668.28;;;25.20;59.42
48968;BME280;46511;53.148;8.204;2023-09-19T12:18:00;100667.31;;;24.21;66.47
48968;BME280;46511;53.148;8.204;2023-09-19T12:20:41;100667.28;;;23.35;78.36
48968;BME280;46511;53.148;8.204;2023-09-19T12:23:20;100656.31;;;25.29;64.99
48968;BME280;46511;53.148;8.204;2023-09-19T12:25:52;100658.38;;;26.16;62.13
48968;BME280;46511;53.148;8.204;2023-09-19T12:28:30;100673.00;;;24.35;72.70
48968;BME280;46511;53.148;8.204;2023-09-19T12:31:06;100675.84;;;23.71;73.43
48968;BME280;46511;53.148;8.204;2023-09-19T12:33:38;100642.38;;;24.95;73.47
48968;BME280;46511;53.148;8.204;2023-09-19T12:36:20;100636.94;;;25.62;67.27
48968;BME280;46511;53.148;8.204;2023-09-19T12:38:59;100644.69;;;25.65;63.92
48968;BME280;46511;53.148;8.204;2023-09-19T12:41:26;100634.84;;;26.44;59.34
48968;BME280;46511;53.148;8.204;2023-09-19T12:43:58;100631.94;;;28.60;52.89
48968;BME280;46511;53.148;8.204;2023-09-19T12:46:31;100630.94;;;27.24;53.82
48968;BME280;46511;53.148;8.204;2023-09-19T12:49:18;100619.38;;;25.05;62.92
48968;BME280;46511;53.148;8.204;2023-09-19T12:51:48;100627.19;;;24.40;70.64
48968;BME280;46511;53.148;8.204;2023-09-19T12:54:20;100616.53;;;22.96;82.79
48968;BME280;46511;53.148;8.204;2023-09-19T12:56:53;100605.94;;;23.42;87.42
48968;BME280;46511;53.148;8.204;2023-09-19T12:59:29;100607.34;;;24.08;81.13
48968;BME280;46511;53.148;8.204;2023-09-19T13:02:05;100621.25;;;23.02;89.99
48968;BME280;46511;53.148;8.204;2023-09-19T13:04:51;100606.19;;;23.72;84.73
48968;BME280;46511;53.148;8.204;2023-09-19T13:07:42;100597.69;;;24.37;81.45
48968;BME280;46511;53.148;8.204;2023-09-19T13:10:14;100608.44;;;24.22;83.58
48968;BME280;46511;53.148;8.204;2023-09-19T13:12:42;100603.47;;;23.08;90.92
48968;BME280;46511;53.148;8.204;2023-09-19T13:15:18;100614.97;;;23.74;87.14
48968;BME280;46511;53.148;8.204;2023-09-19T13:17:49;100652.72;;;23.28;90.30
48968;BME280;46511;53.148;8.204;2023-09-19T13:20:21;100607.41;;;23.53;88.91
48968;BME280;46511;53.148;8.204;2023-09-19T13:22:58;100610.75;;;22.67;90.29
48968;BME280;46511;53.148;8.204;2023-09-19T13:25:37;100596.53;;;22.73;91.25
48968;BME280;46511;53.148;8.204;2023-09-19T13:28:11;100607.53;;;22.63;92.54
48968;BME280;46511;53.148;8.204;2023-09-19T13:30:42;100615.16;;;22.27;93.29
48968;BME280;46511;53.148;8.204;2023-09-19T13:33:11;100588.75;;;22.21;94.60
48968;BME280;46511;53.148;8.204;2023-09-19T13:35:40;100621.06;;;22.71;91.42
48968;BME280;46511;53.148;8.204;2023-09-19T13:38:12;100594.16;;;22.70;91.55
48968;BME280;46511;53.148;8.204;2023-09-19T13:40:38;100590.44;;;22.71;91.64
48968;BME280;46511;53.148;8.204;2023-09-19T13:43:07;100591.66;;;22.85;90.13
48968;BME280;46511;53.148;8.204;2023-09-19T13:45:40;100584.19;;;22.78;92.22
48968;BME280;46511;53.148;8.204;2023-09-19T13:48:13;100584.84;;;22.64;93.64
48968;BME280;46511;53.148;8.204;2023-09-19T13:50:45;100572.19;;;22.57;93.77
48968;BME280;46511;53.148;8.204;2023-09-19T13:53:16;100583.50;;;22.28;96.46
48968;BME280;46511;53.148;8.204;2023-09-19T13:55:48;100597.22;;;22.50;97.54